Time;durP1;ratioP1;P1;durP2;ratioP2;P2;SDS_P1;SDS_P2;PMS_P1;PMS_P2;Temp;Humidity;BMP_temperature;BMP_pressure;BME280_temperature;BME280_humidity;BME280_pressure;Samples;Min_cycle;Max_cycle;Signal;HPM_P1;HPM_P2
2021/09/26 00:01:03;;;;;;;9.05;5.50;;;;;;;13.54;100.00;99935.32;1767476;81;21030;-77
2021/09/26 00:03:30;;;;;;;6.83;4.90;;;;;;;13.51;100.00;99944.28;1767379;80;21022;-76
2021/09/26 00:05:56;;;;;;;8.88;4.78;;;;;;;13.46;100.00;99933.09;1767618;81;21495;-75
2021/09/26 00:08:22;;;;;;;5.85;4.70;;;;;;;13.42;100.00;99938.14;1748031;81;21569;-76
2021/09/26 00:10:49;;;;;;;9.23;5.17;;;;;;;13.36;100.00;99941.09;1768200;81;21022;-75
2021/09/26 00:13:15;;;;;;;8.35;4.87;;;;;;;13.30;100.00;99948.05;1768150;81;21054;-77
2021/09/26 00:15:41;;;;;;;8.08;4.70;;;;;;;13.24;100.00;99949.16;1767789;81;21104;-76
2021/09/26 00:18:11;;;;;;;8.93;4.72;;;;;;;13.19;100.00;99954.69;1768238;81;22195;-76
2021/09/26 00:20:37;;;;;;;8.35;5.00;;;;;;;13.15;100.00;99949.16;1753395;81;21077;-75
2021/09/26 00:23:03;;;;;;;6.15;4.40;;;;;;;13.12;100.00;99948.00;1737302;82;21562;-76
2021/09/26 00:25:30;;;;;;;10.05;5.78;;;;;;;13.10;100.00;99943.72;1684425;84;21144;-78
2021/09/26 00:27:56;;;;;;;6.90;4.87;;;;;;;13.06;100.00;99948.30;1684664;85;21626;-75
2021/09/26 00:30:22;;;;;;;6.40;4.67;;;;;;;13.07;100.00;99957.95;1684476;84;21856;-76
2021/09/26 00:32:49;;;;;;;9.83;5.53;;;;;;;13.08;100.00;99961.45;1684724;85;21104;-79
2021/09/26 00:35:17;;;;;;;7.30;4.10;;;;;;;13.08;100.00;99959.66;1684275;85;21056;-76
2021/09/26 00:37:43;;;;;;;8.18;4.42;;;;;;;13.09;100.00;99971.95;1684805;85;21133;-78
2021/09/26 00:40:12;;;;;;;7.75;4.55;;;;;;;13.11;100.00;99968.77;1684556;85;21065;-79
2021/09/26 00:42:38;;;;;;;11.15;5.65;;;;;;;13.11;100.00;99963.48;1684795;85;21095;-78
2021/09/26 00:45:06;;;;;;;7.80;5.00;;;;;;;13.10;100.00;99963.08;1684698;85;21098;-77
2021/09/26 00:47:34;;;;;;;8.25;4.50;;;;;;;13.10;100.00;99965.72;1684417;85;21124;-75
2021/09/26 00:50:01;;;;;;;7.78;4.55;;;;;;;13.10;100.00;99968.37;1684557;85;21065;-75
2021/09/26 00:52:27;;;;;;;8.58;4.80;;;;;;;13.14;100.00;99969.94;1684671;85;22173;-78
2021/09/26 00:54:53;;;;;;;12.00;5.25;;;;;;;13.14;100.00;99971.25;1737583;82;21490;-76
2021/09/26 00:57:20;;;;;;;10.43;4.75;;;;;;;13.16;100.00;99977.33;1738330;82;21054;-75
2021/09/26 00:59:47;;;;;;;9.08;4.65;;;;;;;13.18;100.00;99978.11;1738579;82;21054;-78
2021/09/26 01:02:13;;;;;;;7.15;4.35;;;;;;;13.19;100.00;99974.98;1716925;83;21039;-74
2021/09/26 01:04:40;;;;;;;11.83;4.87;;;;;;;13.21;100.00;99966.05;1766511;80;21045;-73
2021/09/26 01:07:41;;;;;;;7.67;4.72;;;;;;;13.21;100.00;99976.63;1740402;81;21585;-76
2021/09/26 01:10:53;;;;;;;6.72;4.60;;;;;;;13.22;100.00;99979.64;1766777;81;21614;-79
2021/09/26 01:13:25;;;;;;;10.00;4.78;;;;;;;13.23;100.00;99985.33;1733879;82;21652;-81
2021/09/26 01:16:06;;;;;;;7.30;4.20;;;;;;;13.25;100.00;99987.03;1761003;81;22132;-76
2021/09/26 01:19:04;;;;;;;7.85;5.03;;;;;;;13.23;100.00;99982.69;1765498;81;20995;-76
2021/09/26 01:21:51;;;;;;;7.42;4.72;;;;;;;13.23;100.00;99991.09;1765870;81;21971;-77
2021/09/26 01:24:51;;;;;;;12.93;5.12;;;;;;;13.24;100.00;99986.19;1765892;81;21113;-76
2021/09/26 01:27:26;;;;;;;9.57;5.20;;;;;;;13.22;100.00;99990.22;1766213;81;21097;-75
2021/09/26 01:30:16;;;;;;;9.93;5.12;;;;;;;13.19;100.00;99989.06;1766025;81;21093;-75
2021/09/26 01:33:00;;;;;;;8.55;5.25;;;;;;;13.16;100.00;99985.73;1766446;81;21097;-75
2021/09/26 01:35:27;;;;;;;10.38;5.25;;;;;;;13.10;100.00;99990.84;1765994;80;21521;-74
2021/09/26 01:38:02;;;;;;;9.35;4.87;;;;;;;13.06;100.00;99995.88;1766313;80;21029;-76
2021/09/26 01:40:46;;;;;;;7.45;4.30;;;;;;;12.99;100.00;100005.90;1765741;81;21128;-77
2021/09/26 01:43:16;;;;;;;5.83;4.15;;;;;;;12.94;100.00;100012.35;1765974;81;21501;-78
2021/09/26 01:45:47;;;;;;;10.40;4.47;;;;;;;12.89;100.00;100015.70;1766094;81;21101;-76
2021/09/26 01:48:30;;;;;;;9.70;4.67;;;;;;;12.87;100.00;100025.01;1766250;81;21093;-76
2021/09/26 01:50:58;;;;;;;8.65;4.60;;;;;;;12.86;100.00;100026.39;1765192;81;21031;-75
2021/09/26 01:53:25;;;;;;;12.88;5.37;;;;;;;12.83;100.00;100026.55;1775895;80;21515;-74
2021/09/26 01:55:52;;;;;;;7.58;4.87;;;;;;;12.82;100.00;100032.78;1697778;83;21062;-76
2021/09/26 01:58:18;;;;;;;10.28;5.25;;;;;;;12.78;100.00;100028.09;1788457;80;21070;-74
2021/09/26 02:00:44;;;;;;;14.07;5.20;;;;;;;12.75;100.00;100033.06;1788641;80;21507;-75
2021/09/26 02:03:11;;;;;;;9.30;5.20;;;;;;;12.71;100.00;100030.16;1788551;80;21066;-75
2021/09/26 02:05:41;;;;;;;9.53;4.80;;;;;;;12.68;100.00;100030.80;1706093;83;21066;-75
2021/09/26 02:08:08;;;;;;;12.47;5.67;;;;;;;12.65;100.00;100032.23;1789211;80;21034;-76
2021/09/26 02:10:35;;;;;;;8.15;4.67;;;;;;;12.60;100.00;100029.81;1788992;80;21026;-75
2021/09/26 02:13:02;;;;;;;9.83;5.30;;;;;;;12.58;100.00;100034.30;1706705;83;21805;-75
2021/09/26 02:15:28;;;;;;;12.18;5.55;;;;;;;12.55;100.00;100040.59;1788725;80;21067;-75
2021/09/26 02:17:55;;;;;;;6.47;3.90;;;;;;;12.53;100.00;100040.27;1789331;80;21584;-78
2021/09/26 02:20:21;;;;;;;10.58;5.62;;;;;;;12.54;100.00;100040.69;1706393;83;21023;-77
2021/09/26 02:22:49;;;;;;;8.03;4.72;;;;;;;12.53;100.00;100038.95;1789196;80;21042;-78
2021/09/26 02:25:18;;;;;;;13.55;5.85;;;;;;;12.54;100.00;100040.69;1788816;80;21102;-78
2021/09/26 02:27:44;;;;;;;12.13;5.47;;;;;;;12.55;100.00;100042.38;1706735;84;21573;-77
2021/09/26 02:30:11;;;;;;;9.58;5.33;;;;;;;12.52;100.00;100047.82;1789027;80;21081;-77
2021/09/26 02:32:38;;;;;;;9.45;5.80;;;;;;;12.50;100.00;100051.84;1771456;80;21152;-77
2021/09/26 02:35:06;;;;;;;10.68;5.20;;;;;;;12.48;100.00;100048.41;1767347;81;21096;-77
2021/09/26 02:37:34;;;;;;;9.30;5.37;;;;;;;12.46;100.00;100057.34;1767117;81;21588;-77
2021/09/26 02:40:01;;;;;;;17.70;6.67;;;;;;;12.42;100.00;100063.68;1767924;81;20987;-79
2021/09/26 02:43:16;;;;;;;9.20;5.72;;;;;;;12.39;100.00;100064.21;1767569;81;21719;-77
2021/09/26 02:46:04;;;;;;;12.37;5.97;;;;;;;12.38;100.00;100066.94;1768235;81;21696;-76
2021/09/26 02:48:28;;;;;;;9.83;5.35;;;;;;;12.35;100.00;100065.30;1740803;81;21069;-76
2021/09/26 02:50:54;;;;;;;10.85;5.78;;;;;;;12.30;100.00;100072.55;1741035;81;21173;-76
2021/09/26 02:53:21;;;;;;;11.33;6.67;;;;;;;12.27;100.00;100070.53;1768031;81;21162;-75
2021/09/26 02:55:48;;;;;;;10.48;5.97;;;;;;;12.24;100.00;100075.92;1748258;81;21112;-75
2021/09/26 02:58:15;;;;;;;10.70;5.90;;;;;;;12.20;100.00;100076.55;1767774;81;21088;-74
2021/09/26 03:00:44;;;;;;;10.23;6.05;;;;;;;12.17;100.00;100084.61;1753462;81;21061;-74
2021/09/26 03:03:15;;;;;;;12.50;6.10;;;;;;;12.16;100.00;100080.23;1719073;83;21592;-74
2021/09/26 03:05:44;;;;;;;14.03;5.78;;;;;;;12.13;100.00;100071.14;1719076;82;22173;-73
2021/09/26 03:08:11;;;;;;;15.68;6.72;;;;;;;12.15;100.00;100085.14;1719209;83;21094;-74
2021/09/26 03:10:38;;;;;;;14.05;5.55;;;;;;;12.12;100.00;100082.61;1719786;83;21554;-75
2021/09/26 03:13:04;;;;;;;10.23;5.50;;;;;;;12.10;100.00;100081.81;1719249;83;21029;-73
2021/09/26 03:15:31;;;;;;;8.60;5.45;;;;;;;12.06;100.00;100086.86;1719272;83;21621;-73
2021/09/26 03:17:57;;;;;;;10.68;5.47;;;;;;;12.04;100.00;100094.84;1719176;83;21059;-74
2021/09/26 03:20:24;;;;;;;12.23;5.67;;;;;;;12.00;100.00;100103.80;1718933;83;21096;-72
2021/09/26 03:22:50;;;;;;;11.28;5.53;;;;;;;11.97;100.00;100103.95;1719335;83;22104;-73
2021/09/26 03:25:17;;;;;;;8.95;4.72;;;;;;;11.96;100.00;100107.06;1742646;80;21133;-75
2021/09/26 03:27:44;;;;;;;12.58;5.78;;;;;;;11.94;100.00;100100.98;1748449;82;22153;-78
2021/09/26 03:30:12;;;;;;;13.10;5.30;;;;;;;11.93;100.00;100113.77;1752802;80;21578;-75
2021/09/26 03:32:38;;;;;;;13.58;5.95;;;;;;;11.91;100.00;100113.44;1699555;84;21331;-74
2021/09/26 03:35:05;;;;;;;16.45;5.53;;;;;;;11.86;100.00;100109.64;1699605;84;21063;-76
2021/09/26 03:37:32;;;;;;;14.85;5.30;;;;;;;11.83;100.00;100107.14;1702291;84;21012;-75
2021/09/26 03:39:59;;;;;;;14.90;6.00;;;;;;;11.79;100.00;100110.83;1703048;84;21479;-73
2021/09/26 03:42:25;;;;;;;10.93;4.90;;;;;;;11.72;100.00;100110.23;1683124;84;21099;-74
2021/09/26 03:44:51;;;;;;;18.00;6.05;;;;;;;11.68;100.00;100103.83;1767592;81;21104;-76
2021/09/26 03:47:17;;;;;;;10.72;5.50;;;;;;;11.66;100.00;100109.62;1767582;81;22080;-75
2021/09/26 03:49:44;;;;;;;9.35;5.33;;;;;;;11.62;100.00;100111.98;1767941;81;21058;-75
2021/09/26 03:52:10;;;;;;;9.13;5.58;;;;;;;11.59;100.00;100119.56;1767596;81;21474;-73
2021/09/26 03:54:37;;;;;;;12.63;5.30;;;;;;;11.55;100.00;100116.22;1767755;81;21188;-73
2021/09/26 03:57:04;;;;;;;16.35;6.75;;;;;;;11.53;100.00;100119.84;1767496;81;21034;-73
2021/09/26 03:59:30;;;;;;;9.13;5.08;;;;;;;11.50;100.00;100126.10;1767801;81;21034;-73
2021/09/26 04:01:56;;;;;;;8.70;5.50;;;;;;;11.51;100.00;100126.48;1767674;81;21142;-72
2021/09/26 04:04:23;;;;;;;16.37;5.35;;;;;;;11.52;100.00;100125.55;1767853;81;21164;-72
2021/09/26 04:06:49;;;;;;;15.32;5.78;;;;;;;11.54;100.00;100136.90;1767763;81;21045;-73
2021/09/26 04:09:16;;;;;;;8.43;4.85;;;;;;;11.57;100.00;100136.38;1768249;81;21030;-74
2021/09/26 04:11:43;;;;;;;16.45;4.78;;;;;;;11.60;100.00;100142.88;1763711;80;21049;-74
2021/09/26 04:14:09;;;;;;;14.75;6.15;;;;;;;11.63;100.00;100142.27;1684621;85;21611;-73
2021/09/26 04:16:36;;;;;;;9.45;4.05;;;;;;;11.65;100.00;100139.11;1670168;85;22155;-72
2021/09/26 04:19:02;;;;;;;14.73;5.72;;;;;;;11.66;100.00;100136.00;1737638;82;21057;-75
2021/09/26 04:21:29;;;;;;;14.53;4.95;;;;;;;11.67;100.00;100142.55;1737165;82;21049;-75
2021/09/26 04:23:55;;;;;;;19.40;5.97;;;;;;;11.71;100.00;100144.58;1684878;84;21045;-76
2021/09/26 04:26:22;;;;;;;13.68;5.37;;;;;;;11.77;100.00;100148.29;1669933;85;21129;-75
2021/09/26 04:28:48;;;;;;;10.40;4.87;;;;;;;11.93;100.00;100147.22;1737377;82;21113;-75
2021/09/26 04:31:15;;;;;;;15.55;5.50;;;;;;;11.99;100.00;100144.80;1684245;84;21074;-77
2021/09/26 04:33:41;;;;;;;15.78;5.65;;;;;;;12.01;100.00;100152.16;1699615;84;21077;-74
2021/09/26 04:36:08;;;;;;;11.55;5.28;;;;;;;12.02;100.00;100145.98;1705999;81;21056;-77
2021/09/26 04:38:34;;;;;;;11.08;5.22;;;;;;;12.05;100.00;100157.72;1718229;81;21092;-77
2021/09/26 04:41:01;;;;;;;13.43;5.53;;;;;;;12.06;100.00;100158.13;1697010;81;21688;-76
2021/09/26 04:43:27;;;;;;;15.68;5.85;;;;;;;12.09;100.00;100165.91;1698099;81;21057;-76
2021/09/26 04:45:53;;;;;;;13.40;5.65;;;;;;;12.10;100.00;100167.61;1719261;83;21097;-75
2021/09/26 04:48:20;;;;;;;10.80;5.55;;;;;;;12.11;100.00;100171.98;1745488;81;22255;-73
2021/09/26 04:50:46;;;;;;;16.75;5.30;;;;;;;12.12;100.00;100172.36;1742081;81;21089;-79
2021/09/26 04:53:13;;;;;;;15.10;5.60;;;;;;;12.14;100.00;100178.44;1737885;82;21552;-78
2021/09/26 04:55:40;;;;;;;10.18;4.95;;;;;;;12.17;100.00;100176.54;1739158;81;21620;-77
2021/09/26 04:58:06;;;;;;;16.90;8.80;;;;;;;12.17;100.00;100183.61;1769712;81;21252;-76
2021/09/26 05:00:34;;;;;;;12.45;5.65;;;;;;;12.17;100.00;100179.65;1772418;81;21455;-76
2021/09/26 05:03:00;;;;;;;12.13;4.75;;;;;;;12.16;100.00;100175.27;1771905;81;21045;-76
2021/09/26 05:05:27;;;;;;;13.45;4.78;;;;;;;12.20;100.00;100187.90;1702196;84;21510;-76
2021/09/26 05:07:53;;;;;;;11.10;4.62;;;;;;;12.20;100.00;100184.79;1702358;83;21093;-75
2021/09/26 05:10:20;;;;;;;11.93;4.72;;;;;;;12.24;100.00;100187.70;1702642;84;21066;-78
2021/09/26 05:12:46;;;;;;;12.85;5.15;;;;;;;12.26;100.00;100183.66;1703513;84;21620;-77
2021/09/26 05:15:13;;;;;;;14.53;5.33;;;;;;;12.31;100.00;100193.58;1703361;84;21089;-74
2021/09/26 05:17:39;;;;;;;16.20;6.05;;;;;;;12.34;100.00;100192.97;1703561;82;21114;-74
2021/09/26 05:20:07;;;;;;;9.23;4.62;;;;;;;12.38;100.00;100197.20;1706338;82;21773;-74
2021/09/26 05:22:34;;;;;;;14.65;5.53;;;;;;;12.39;100.00;100200.69;1691296;83;21148;-74
2021/09/26 05:25:00;;;;;;;15.98;4.75;;;;;;;12.43;100.00;100198.79;1662323;85;21574;-77
2021/09/26 05:27:27;;;;;;;13.95;5.58;;;;;;;12.46;100.00;100203.92;1723657;82;21034;-76
2021/09/26 05:29:53;;;;;;;12.05;4.58;;;;;;;12.50;100.00;100208.16;1718712;82;21125;-78
2021/09/26 05:32:19;;;;;;;14.15;4.80;;;;;;;12.53;100.00;100208.02;1679304;85;21117;-77
2021/09/26 05:34:46;;;;;;;14.33;5.40;;;;;;;12.54;100.00;100210.59;1704276;82;21071;-78
2021/09/26 05:37:13;;;;;;;12.53;4.95;;;;;;;12.57;100.00;100212.24;1721411;81;21038;-75
2021/09/26 05:39:40;;;;;;;15.18;5.53;;;;;;;12.55;100.00;100207.02;1699580;83;21070;-77
2021/09/26 05:42:06;;;;;;;14.70;5.40;;;;;;;12.58;100.00;100213.51;1754909;80;21745;-79
2021/09/26 05:44:35;;;;;;;15.40;5.25;;;;;;;12.61;100.00;100215.16;1772462;79;21037;-80
2021/09/26 05:47:07;;;;;;;13.72;5.53;;;;;;;12.63;100.00;100220.34;1774456;80;20987;-79
2021/09/26 05:49:37;;;;;;;14.00;5.28;;;;;;;12.66;100.00;100223.73;1759212;80;21085;-79
2021/09/26 05:52:08;;;;;;;18.00;5.17;;;;;;;12.69;100.00;100220.94;1782538;80;21039;-79
2021/09/26 05:54:41;;;;;;;16.07;5.10;;;;;;;12.70;100.00;100218.71;1753762;80;21093;-79
2021/09/26 05:57:09;;;;;;;20.55;5.70;;;;;;;12.71;100.00;100223.05;1764557;80;21632;-77
2021/09/26 05:59:38;;;;;;;14.45;5.45;;;;;;;12.73;100.00;100222.52;1772488;80;21093;-79
2021/09/26 06:02:10;;;;;;;11.57;4.65;;;;;;;12.77;100.00;100218.83;1748858;81;21224;-78
2021/09/26 06:04:40;;;;;;;16.67;5.97;;;;;;;12.84;100.00;100217.20;1717013;82;21089;-80
2021/09/26 06:07:05;;;;;;;14.33;5.53;;;;;;;12.91;100.00;100217.36;1707265;81;21102;-79
2021/09/26 06:09:32;;;;;;;14.70;5.62;;;;;;;12.99;100.00;100217.84;1773117;80;21513;-78
2021/09/26 06:11:58;;;;;;;20.10;5.22;;;;;;;13.08;100.00;100216.10;1766250;80;21058;-79
2021/09/26 06:14:25;;;;;;;16.48;5.78;;;;;;;13.17;100.00;100220.12;1766008;80;21085;-79
2021/09/26 06:16:52;;;;;;;17.30;5.22;;;;;;;13.26;100.00;100225.45;1697603;84;22474;-78
2021/09/26 06:19:18;;;;;;;14.68;5.10;;;;;;;13.35;100.00;100229.02;1766102;81;21480;-79
2021/09/26 06:21:45;;;;;;;13.48;4.05;;;;;;;13.42;100.00;100229.97;1765915;81;21039;-79
2021/09/26 06:24:12;;;;;;;16.87;5.08;;;;;;;13.54;100.00;100236.94;1766508;81;21054;-79
2021/09/26 06:26:38;;;;;;;16.17;4.40;;;;;;;13.60;100.00;100238.83;1697825;84;21079;-80
2021/09/26 06:29:05;;;;;;;13.93;4.65;;;;;;;13.64;100.00;100229.82;1696931;84;21127;-77
2021/09/26 06:31:31;;;;;;;12.78;4.42;;;;;;;13.68;100.00;100244.22;1756028;79;21533;-79
2021/09/26 06:33:58;;;;;;;14.58;4.47;;;;;;;13.75;100.00;100241.66;1730567;81;21081;-78
2021/09/26 06:36:24;;;;;;;15.78;4.70;;;;;;;13.86;100.00;100243.33;1686070;83;21064;-79
2021/09/26 06:38:51;;;;;;;16.60;5.17;;;;;;;13.96;100.00;100244.58;1685996;84;21063;-78
2021/09/26 06:41:18;;;;;;;16.00;4.62;;;;;;;14.22;99.11;100241.98;1673473;83;22153;-79
2021/09/26 06:43:46;;;;;;;10.90;4.40;;;;;;;14.45;97.71;100245.25;1687996;84;21490;-79
2021/09/26 06:46:12;;;;;;;14.55;4.62;;;;;;;14.71;95.58;100244.41;1740332;81;21579;-78
2021/09/26 06:48:39;;;;;;;13.68;4.87;;;;;;;15.05;94.70;100246.98;1749420;80;21094;-80
2021/09/26 06:51:05;;;;;;;18.10;5.37;;;;;;;15.46;92.56;100245.64;1748104;80;21105;-78
2021/09/26 06:53:32;;;;;;;11.53;4.62;;;;;;;15.85;91.41;100247.03;1760196;79;21069;-79
2021/09/26 06:55:58;;;;;;;12.75;4.40;;;;;;;16.29;89.34;100251.59;1759962;79;21106;-77
2021/09/26 06:58:24;;;;;;;12.95;4.72;;;;;;;16.53;86.43;100260.75;1758076;79;21042;-79
2021/09/26 07:00:51;;;;;;;16.67;4.83;;;;;;;16.73;84.55;100256.05;1733469;81;20999;-77
2021/09/26 07:03:17;;;;;;;17.42;4.65;;;;;;;16.94;83.16;100257.42;1757125;80;21057;-78
2021/09/26 07:05:44;;;;;;;11.05;3.80;;;;;;;17.27;82.28;100253.61;1755595;79;21640;-79
2021/09/26 07:08:11;;;;;;;11.50;3.80;;;;;;;17.58;81.43;100262.34;1748107;81;22222;-79
2021/09/26 07:10:39;;;;;;;16.70;4.53;;;;;;;18.26;78.17;100259.27;1755589;80;21041;-78
2021/09/26 07:13:05;;;;;;;12.07;4.20;;;;;;;18.55;74.98;100254.16;1761992;81;21054;-78
2021/09/26 07:15:34;;;;;;;13.93;3.92;;;;;;;18.91;73.38;100260.63;1747337;81;21194;-77
2021/09/26 07:18:01;;;;;;;11.88;4.58;;;;;;;19.43;71.59;100260.91;1743106;80;21102;-73
2021/09/26 07:20:28;;;;;;;12.00;4.20;;;;;;;19.70;66.46;100255.91;1753993;80;21138;-79
2021/09/26 07:22:59;;;;;;;10.82;3.90;;;;;;;19.81;66.58;100261.82;1737905;79;21044;-78
2021/09/26 07:25:27;;;;;;;11.80;3.85;;;;;;;20.02;65.55;100264.23;1746178;80;21055;-80
2021/09/26 07:27:55;;;;;;;11.97;4.30;;;;;;;20.40;63.22;100267.66;1748484;79;21184;-78
2021/09/26 07:30:22;;;;;;;11.65;4.40;;;;;;;21.01;61.67;100261.63;1754464;79;21069;-80
2021/09/26 07:32:48;;;;;;;9.75;3.90;;;;;;;21.66;60.67;100262.70;1696977;83;21164;-80
2021/09/26 07:35:16;;;;;;;18.40;4.35;;;;;;;22.31;58.60;100254.22;1673173;84;21074;-80
2021/09/26 07:37:43;;;;;;;8.40;3.50;;;;;;;22.55;56.98;100256.67;1736974;80;21057;-79
2021/09/26 07:40:10;;;;;;;12.03;3.60;;;;;;;22.95;55.14;100261.78;1753634;79;21503;-80
2021/09/26 07:42:37;;;;;;;9.40;3.47;;;;;;;23.28;52.84;100266.06;1763312;79;21607;-80
2021/09/26 07:45:08;;;;;;;7.45;3.30;;;;;;;23.76;52.01;100257.82;1757285;79;21091;-80
2021/09/26 07:47:34;;;;;;;13.93;4.13;;;;;;;24.13;49.91;100262.53;1774728;79;21008;-77
2021/09/26 07:50:01;;;;;;;11.45;3.67;;;;;;;24.36;49.65;100262.59;1778486;79;21133;-80
2021/09/26 07:52:27;;;;;;;10.03;3.80;;;;;;;24.31;48.97;100266.22;1776370;79;21047;-80
2021/09/26 07:54:56;;;;;;;8.08;2.60;;;;;;;24.53;48.51;100267.81;1764421;79;21549;-79
2021/09/26 07:57:24;;;;;;;7.37;3.22;;;;;;;24.86;45.18;100262.41;1708098;82;21600;-81
2021/09/26 07:59:51;;;;;;;9.45;3.08;;;;;;;25.23;44.85;100265.65;1718084;82;21203;-78
2021/09/26 08:02:18;;;;;;;10.82;3.22;;;;;;;25.57;42.93;100261.03;1731194;82;21042;-80
2021/09/26 08:04:44;;;;;;;10.60;3.42;;;;;;;25.66;42.89;100268.22;1731295;82;21541;-79
2021/09/26 08:07:11;;;;;;;9.78;2.80;;;;;;;25.62;42.48;100268.66;1696149;83;21139;-79
2021/09/26 08:12:40;;;;;;;9.05;2.60;;;;;;;25.69;42.51;100267.90;1796927;79;23281;-77
2021/09/26 08:15:09;;;;;;;12.43;3.00;;;;;;;25.33;42.03;100280.45;1732614;80;21002;-79
2021/09/26 08:17:35;;;;;;;10.68;2.98;;;;;;;24.75;42.76;100280.08;1718536;83;21332;-77
2021/09/26 08:20:04;;;;;;;11.28;3.10;;;;;;;24.56;41.74;100288.20;1718889;82;21092;-80
2021/09/26 08:22:31;;;;;;;11.78;3.52;;;;;;;24.57;41.22;100279.12;1730195;82;21404;-79
2021/09/26 08:25:00;;;;;;;14.65;3.50;;;;;;;24.69;41.87;100282.03;1747474;82;21046;-79
2021/09/26 08:27:29;;;;;;;9.03;3.12;;;;;;;24.96;40.81;100281.73;1747561;82;20982;-80
2021/09/26 08:29:56;;;;;;;10.80;3.15;;;;;;;25.30;39.90;100286.12;1719892;82;21339;-79
2021/09/26 08:32:22;;;;;;;9.15;3.10;;;;;;;25.52;39.05;100275.47;1718150;82;21050;-79
2021/09/26 08:34:49;;;;;;;8.85;3.35;;;;;;;25.85;38.67;100282.58;1728633;82;21013;-79
2021/09/26 08:37:15;;;;;;;8.05;3.25;;;;;;;25.80;37.92;100274.94;1742135;82;21077;-79
2021/09/26 08:39:43;;;;;;;8.75;2.70;;;;;;;25.93;37.79;100283.55;1727463;82;21085;-78
2021/09/26 08:42:10;;;;;;;10.23;3.45;;;;;;;26.25;36.01;100275.92;1726480;82;21172;-78
2021/09/26 08:44:37;;;;;;;10.00;3.12;;;;;;;26.47;35.71;100268.70;1684724;85;21700;-80
2021/09/26 08:47:03;;;;;;;9.18;3.02;;;;;;;26.26;35.72;100270.88;1696883;84;21068;-80
2021/09/26 08:49:30;;;;;;;9.63;2.77;;;;;;;26.05;36.25;100281.48;1706489;84;21068;-81
2021/09/26 08:51:57;;;;;;;8.50;2.95;;;;;;;25.93;35.96;100273.27;1707210;84;20981;-79
2021/09/26 08:54:24;;;;;;;15.25;3.05;;;;;;;25.89;36.33;100277.27;1706684;84;21700;-80
2021/09/26 08:56:50;;;;;;;10.78;3.10;;;;;;;25.78;37.13;100276.94;1705941;84;21064;-79
2021/09/26 08:59:17;;;;;;;7.12;2.70;;;;;;;25.42;36.32;100286.78;1705856;84;21140;-79
2021/09/26 09:01:45;;;;;;;14.83;3.27;;;;;;;25.25;37.09;100285.22;1705567;84;21627;-79
2021/09/26 09:04:11;;;;;;;12.10;3.37;;;;;;;25.42;37.38;100289.48;1706000;84;21096;-79
2021/09/26 09:06:42;;;;;;;14.25;3.80;;;;;;;25.33;37.35;100292.09;1705854;84;21115;-80
2021/09/26 09:09:15;;;;;;;15.93;3.40;;;;;;;25.41;35.76;100284.59;1705251;84;21699;-81
2021/09/26 09:11:39;;;;;;;9.48;2.77;;;;;;;25.61;36.26;100281.31;1700491;83;21061;-78
2021/09/26 09:14:06;;;;;;;10.40;3.40;;;;;;;25.85;36.90;100282.58;1694084;84;21101;-80
2021/09/26 09:16:34;;;;;;;8.43;2.98;;;;;;;26.20;34.76;100278.23;1694564;84;21046;-80
2021/09/26 09:19:01;;;;;;;14.80;3.08;;;;;;;26.25;35.33;100278.14;1694949;83;21070;-81
2021/09/26 09:21:34;;;;;;;10.53;3.12;;;;;;;26.18;35.02;100284.29;1694849;84;21124;-79
2021/09/26 09:24:20;;;;;;;9.83;3.08;;;;;;;25.96;34.76;100289.14;1694119;84;21094;-79
2021/09/26 09:26:46;;;;;;;11.50;3.25;;;;;;;25.59;34.82;100277.91;1694384;83;21128;-81
2021/09/26 09:29:13;;;;;;;9.50;2.90;;;;;;;25.05;35.81;100284.43;1694220;84;21080;-80
2021/09/26 09:31:56;;;;;;;10.90;3.08;;;;;;;24.57;36.52;100279.12;1692510;84;21200;-79
2021/09/26 09:34:37;;;;;;;10.35;2.87;;;;;;;24.25;36.86;100289.18;1666775;85;21121;-79
2021/09/26 09:37:21;;;;;;;10.15;3.40;;;;;;;24.24;37.18;100275.86;1668327;86;21517;-79
2021/09/26 09:40:17;;;;;;;12.90;3.30;;;;;;;24.34;36.81;100272.69;1668449;86;21616;-77
2021/09/26 09:42:47;;;;;;;10.30;2.70;;;;;;;24.59;36.87;100279.83;1668474;86;21045;-79
2021/09/26 09:45:25;;;;;;;10.53;3.02;;;;;;;24.52;36.78;100281.40;1667788;85;21111;-79
2021/09/26 09:48:06;;;;;;;9.83;2.50;;;;;;;24.58;36.69;100281.68;1666302;86;21938;-80
2021/09/26 09:50:51;;;;;;;7.80;2.42;;;;;;;24.85;37.10;100283.63;1667154;86;21049;-80
2021/09/26 09:53:34;;;;;;;9.80;2.80;;;;;;;25.36;35.48;100290.09;1666517;86;21339;-79
2021/09/26 09:56:17;;;;;;;10.10;2.77;;;;;;;25.22;35.27;100292.27;1666540;86;21085;-80
2021/09/26 09:58:57;;;;;;;7.92;2.55;;;;;;;24.74;35.47;100289.17;1666459;86;21802;-78
2021/09/26 10:01:33;;;;;;;10.13;3.10;;;;;;;24.08;35.95;100289.36;1666130;85;21034;-79
2021/09/26 10:04:08;;;;;;;10.15;2.90;;;;;;;23.44;36.72;100300.02;1666201;86;21070;-80
2021/09/26 10:06:40;;;;;;;9.75;2.80;;;;;;;22.80;38.17;100297.54;1666333;85;21642;-79
2021/09/26 10:09:25;;;;;;;10.00;3.02;;;;;;;22.40;39.19;100304.42;1666303;86;21552;-78
2021/09/26 10:12:03;;;;;;;9.20;2.50;;;;;;;22.09;40.02;100302.59;1666371;84;21074;-79
2021/09/26 10:14:33;;;;;;;10.28;3.30;;;;;;;21.66;41.22;100307.42;1666511;86;21644;-78
2021/09/26 10:17:02;;;;;;;8.83;2.87;;;;;;;21.23;42.29;100309.46;1666551;86;21567;-80
2021/09/26 10:19:30;;;;;;;13.03;3.00;;;;;;;21.36;42.39;100315.56;1666317;85;21120;-80
2021/09/26 10:21:59;;;;;;;12.10;3.10;;;;;;;21.63;41.62;100303.66;1666142;86;21038;-79
2021/09/26 10:24:29;;;;;;;10.32;3.20;;;;;;;21.71;40.89;100303.88;1666323;86;21807;-79
2021/09/26 10:26:58;;;;;;;11.45;3.25;;;;;;;21.66;40.75;100311.44;1666431;86;21104;-79
2021/09/26 10:29:25;;;;;;;9.48;2.72;;;;;;;21.49;40.81;100310.97;1668280;86;21614;-79
2021/09/26 10:31:51;;;;;;;11.45;3.02;;;;;;;21.35;41.12;100311.19;1666617;86;21070;-76
2021/09/26 10:34:20;;;;;;;11.35;2.90;;;;;;;21.52;41.98;100308.03;1666237;86;21100;-78
2021/09/26 10:36:47;;;;;;;13.48;2.60;;;;;;;21.90;41.70;100304.09;1666160;86;21715;-80
2021/09/26 10:39:14;;;;;;;10.08;2.58;;;;;;;22.39;40.72;100306.77;1666049;86;21280;-78
2021/09/26 10:42:11;;;;;;;9.65;2.90;;;;;;;22.83;39.95;100299.45;1666270;86;21598;-77
2021/09/26 10:44:49;;;;;;;13.38;2.90;;;;;;;23.24;38.33;100285.64;1666161;86;21342;-78
2021/09/26 10:47:21;;;;;;;11.90;2.47;;;;;;;23.34;39.05;100293.74;1665861;86;21050;-78
2021/09/26 10:50:15;;;;;;;11.57;3.10;;;;;;;23.66;39.03;100295.41;1666204;86;21487;-79
2021/09/26 10:52:48;;;;;;;13.32;3.20;;;;;;;24.10;36.17;100282.50;1665949;86;21078;-80
2021/09/26 10:55:29;;;;;;;7.17;2.50;;;;;;;24.37;35.19;100283.16;1666373;86;21088;-80
2021/09/26 10:58:09;;;;;;;7.78;2.15;;;;;;;24.46;35.38;100292.22;1666077;86;21046;-78
2021/09/26 11:01:01;;;;;;;8.90;2.60;;;;;;;24.69;35.19;100291.45;1666360;86;21132;-79
2021/09/26 11:03:35;;;;;;;12.37;2.95;;;;;;;24.79;34.61;100289.58;1665919;86;22015;-79
2021/09/26 11:06:22;;;;;;;9.45;2.60;;;;;;;24.77;34.46;100284.83;1666072;86;21089;-79
2021/09/26 11:08:58;;;;;;;8.10;2.37;;;;;;;24.73;34.35;100290.14;1654941;86;21081;-79
2021/09/26 11:11:33;;;;;;;10.48;2.37;;;;;;;24.65;35.07;100286.84;1666212;84;21136;-80
2021/09/26 11:13:59;;;;;;;10.63;2.62;;;;;;;24.78;34.28;100279.81;1654352;86;21153;-79
2021/09/26 11:16:26;;;;;;;9.63;2.55;;;;;;;25.02;34.72;100279.81;1654256;86;21535;-79
2021/09/26 11:19:02;;;;;;;6.62;2.35;;;;;;;25.23;34.00;100282.33;1654337;86;21138;-79
2021/09/26 11:21:45;;;;;;;10.32;2.60;;;;;;;25.04;33.00;100276.48;1653304;86;21297;-79
2021/09/26 11:24:20;;;;;;;10.05;2.83;;;;;;;24.65;33.68;100271.19;1654148;86;21125;-79
2021/09/26 11:27:10;;;;;;;10.15;2.85;;;;;;;24.28;34.50;100266.01;1654566;86;21058;-79
2021/09/26 11:29:49;;;;;;;6.72;2.80;;;;;;;23.78;35.56;100278.20;1656423;85;21465;-81
2021/09/26 11:32:27;;;;;;;7.70;2.55;;;;;;;23.64;36.33;100275.38;1659981;85;21509;-79